Time;durP1;ratioP1;P1;durP2;ratioP2;P2;SDS_P1;SDS_P2;PMS_P1;PMS_P2;Temp;Humidity;BMP_temperature;BMP_pressure;BME280_temperature;BME280_humidity;BME280_pressure;Samples;Min_cycle;Max_cycle;Signal;HPM_P1;HPM_P2
2023/05/18 00:00:43;;;;;;;9.07;3.38;;;;;;;7.93;73.53;102720.25;5058681;28;20028;-55
2023/05/18 00:03:09;;;;;;;14.02;3.60;;;;;;;7.87;73.37;102717.81;5053835;28;20060;-54
2023/05/18 00:05:34;;;;;;;10.82;3.17;;;;;;;7.85;73.68;102714.34;5056286;28;20130;-56
2023/05/18 00:08:00;;;;;;;11.07;3.47;;;;;;;7.80;73.64;102718.94;5068976;28;20028;-56
2023/05/18 00:10:25;;;;;;;12.25;3.40;;;;;;;7.75;73.78;102713.81;5058263;28;20025;-53
2023/05/18 00:12:51;;;;;;;12.50;3.70;;;;;;;7.76;73.50;102718.19;5072216;28;20120;-56
2023/05/18 00:15:16;;;;;;;11.10;3.10;;;;;;;7.73;73.80;102714.78;5064985;28;20029;-56
2023/05/18 00:17:42;;;;;;;7.20;3.28;;;;;;;7.73;73.75;102720.09;5065984;28;20032;-53
2023/05/18 00:20:08;;;;;;;13.48;3.10;;;;;;;7.70;73.47;102718.38;5059509;28;20035;-53
2023/05/18 00:22:34;;;;;;;11.00;3.20;;;;;;;7.69;73.90;102715.78;5058030;28;20025;-53
2023/05/18 00:24:59;;;;;;;9.65;3.30;;;;;;;7.67;73.90;102721.13;5066715;28;20032;-53
2023/05/18 00:27:24;;;;;;;9.85;3.15;;;;;;;7.65;73.87;102719.47;5071196;28;20016;-54
2023/05/18 00:29:50;;;;;;;16.67;3.58;;;;;;;7.58;73.85;102719.69;5062012;28;20053;-53
2023/05/18 00:32:15;;;;;;;8.50;3.17;;;;;;;7.58;73.83;102716.19;5071415;28;20025;-54
2023/05/18 00:34:40;;;;;;;8.25;3.50;;;;;;;7.52;74.48;102711.94;5063735;28;20390;-56
2023/05/18 00:37:05;;;;;;;8.25;3.00;;;;;;;7.44;74.99;102724.56;5054874;28;20029;-53
2023/05/18 00:39:31;;;;;;;13.70;3.15;;;;;;;7.44;74.68;102727.19;5066139;28;20025;-55
2023/05/18 00:41:56;;;;;;;10.90;3.20;;;;;;;7.43;74.63;102727.25;5056954;28;20033;-54
2023/05/18 00:44:21;;;;;;;10.07;3.30;;;;;;;7.37;74.96;102723.91;5068241;28;20066;-54
2023/05/18 00:46:46;;;;;;;8.32;3.42;;;;;;;7.31;75.59;102724.13;5070604;28;20028;-54
2023/05/18 00:49:12;;;;;;;7.78;3.40;;;;;;;7.31;75.77;102728.50;5071237;28;20025;-55
2023/05/18 00:51:39;;;;;;;10.30;3.42;;;;;;;7.31;75.37;102728.50;5059549;28;20036;-56
2023/05/18 00:54:06;;;;;;;8.43;2.88;;;;;;;7.28;75.64;102725.97;5069902;28;20017;-54
2023/05/18 00:56:34;;;;;;;11.63;3.60;;;;;;;7.19;75.82;102722.75;5071900;28;20029;-54
2023/05/18 00:59:01;;;;;;;13.85;3.92;;;;;;;7.20;75.67;102726.22;5058831;28;20116;-57
2023/05/18 01:01:29;;;;;;;9.60;3.40;;;;;;;7.19;75.67;102721.84;5071332;28;20488;-54
2023/05/18 01:03:56;;;;;;;10.48;3.60;;;;;;;7.15;76.25;102721.09;5070882;28;20023;-53
2023/05/18 01:06:25;;;;;;;12.40;3.65;;;;;;;7.15;75.92;102721.09;5071365;28;20024;-53
2023/05/18 01:08:52;;;;;;;10.07;3.47;;;;;;;7.09;76.35;102723.91;5069798;28;20095;-57
2023/05/18 01:11:31;;;;;;;8.18;3.50;;;;;;;7.10;76.10;102727.44;5069573;28;20401;-56
2023/05/18 01:14:07;;;;;;;11.60;3.60;;;;;;;7.08;75.65;102731.88;5058517;28;20041;-56
2023/05/18 01:16:43;;;;;;;6.80;3.03;;;;;;;7.04;76.05;102731.13;5071352;28;20377;-54
2023/05/18 01:19:50;;;;;;;11.25;3.58;;;;;;;7.00;76.24;102729.50;5058971;28;20045;-55
2023/05/18 01:23:02;;;;;;;9.35;3.25;;;;;;;6.96;75.50;102722.56;5069825;28;20401;-56
2023/05/18 01:25:52;;;;;;;10.98;3.50;;;;;;;6.99;75.74;102736.53;5067379;28;20032;-56
2023/05/18 01:28:21;;;;;;;9.57;3.50;;;;;;;6.83;77.10;102730.88;5065725;28;20032;-57
2023/05/18 01:30:47;;;;;;;11.50;3.55;;;;;;;6.84;77.22;102729.09;5062622;28;20544;-53
2023/05/18 01:33:13;;;;;;;7.43;3.58;;;;;;;6.85;76.69;102733.50;5074268;28;20119;-54
2023/05/18 01:35:46;;;;;;;12.45;3.60;;;;;;;6.83;77.18;102732.69;5066227;28;20029;-55
2023/05/18 01:38:32;;;;;;;9.57;3.35;;;;;;;6.82;76.78;102728.28;5074481;28;20370;-57
2023/05/18 01:41:17;;;;;;;11.07;3.63;;;;;;;6.79;76.77;102731.88;5074024;28;20131;-55
2023/05/18 01:44:11;;;;;;;13.38;3.85;;;;;;;6.75;77.05;102726.75;5069868;28;20112;-54
2023/05/18 01:46:51;;;;;;;14.48;3.60;;;;;;;6.72;78.04;102729.50;5074056;28;20489;-55
2023/05/18 01:49:37;;;;;;;8.88;3.47;;;;;;;6.71;77.75;102728.63;5066991;28;20094;-57
2023/05/18 01:52:07;;;;;;;13.00;3.60;;;;;;;6.71;78.04;102730.38;5069873;28;20032;-56
2023/05/18 01:54:36;;;;;;;9.25;3.33;;;;;;;6.65;78.15;102720.88;5073892;28;20498;-57
2023/05/18 01:57:03;;;;;;;10.20;3.78;;;;;;;6.66;77.69;102734.03;5068484;28;20110;-54
2023/05/18 01:59:29;;;;;;;10.60;3.70;;;;;;;6.67;78.06;102733.13;5061425;28;20139;-57
2023/05/18 02:01:58;;;;;;;10.95;3.38;;;;;;;6.62;78.77;102736.81;5073952;28;20107;-57
2023/05/18 02:04:24;;;;;;;;;;;;;;;6.75;75.68;102732.03;5074424;28;20033;-55
2023/05/18 02:06:53;;;;;;;7.53;3.47;;;;;;;6.58;78.17;102722.84;5067568;28;19920;-57
2023/05/18 02:09:21;;;;;;;8.43;3.53;;;;;;;6.63;78.50;102733.28;5074064;28;20631;-54
2023/05/18 02:11:46;;;;;;;12.50;3.80;;;;;;;6.59;78.80;102727.19;5068278;28;20047;-53
2023/05/18 02:14:12;;;;;;;12.48;3.50;;;;;;;6.60;78.86;102730.72;5073822;28;20029;-54
2023/05/18 02:16:37;;;;;;;6.65;3.90;;;;;;;6.52;79.22;102717.75;5073755;28;20032;-54
2023/05/18 02:19:03;;;;;;;10.60;3.63;;;;;;;6.54;79.27;102722.97;5066787;28;20036;-55
2023/05/18 02:21:28;;;;;;;8.20;3.53;;;;;;;6.53;79.12;102726.50;5073792;28;20029;-55
2023/05/18 02:23:54;;;;;;;9.65;3.67;;;;;;;6.51;79.25;102720.41;5073790;28;20395;-56
2023/05/18 02:26:19;;;;;;;9.27;3.63;;;;;;;6.48;79.65;102719.59;5066980;28;20040;-53
2023/05/18 02:28:45;;;;;;;12.27;4.47;;;;;;;6.46;79.64;102717.91;5073568;28;20021;-57
2023/05/18 02:31:11;;;;;;;9.65;3.88;;;;;;;6.47;79.55;102712.59;5071929;28;20072;-56
2023/05/18 02:33:39;;;;;;;10.95;3.67;;;;;;;6.47;79.75;102712.59;5073651;28;20028;-56
2023/05/18 02:36:11;;;;;;;8.27;3.63;;;;;;;6.44;79.65;102706.53;5072781;28;20461;-55
2023/05/18 02:38:42;;;;;;;13.82;4.07;;;;;;;6.43;80.08;102707.47;5073003;28;20078;-56
2023/05/18 02:41:09;;;;;;;10.55;3.83;;;;;;;6.40;80.19;102710.19;5069714;28;20530;-53
2023/05/18 02:43:35;;;;;;;8.55;3.33;;;;;;;6.37;80.08;102705.84;5068326;28;20033;-55
2023/05/18 02:46:00;;;;;;;10.60;4.13;;;;;;;6.36;80.13;102701.50;5065303;28;20378;-55
2023/05/18 02:48:26;;;;;;;13.10;3.65;;;;;;;6.38;79.93;102707.59;5073309;28;20024;-56
2023/05/18 02:50:52;;;;;;;9.25;3.38;;;;;;;6.35;80.20;102718.22;5066530;28;20492;-56
2023/05/18 02:53:17;;;;;;;10.80;3.58;;;;;;;6.32;80.46;102710.41;5071719;28;20036;-54
2023/05/18 02:55:42;;;;;;;10.18;3.58;;;;;;;6.30;80.59;102713.09;5073277;28;20520;-54
2023/05/18 02:58:08;;;;;;;7.05;3.63;;;;;;;6.26;80.55;102711.44;5073472;28;20082;-57
2023/05/18 03:00:34;;;;;;;8.73;4.05;;;;;;;6.27;80.72;102707.88;5069909;28;20507;-57
2023/05/18 03:03:00;;;;;;;13.07;4.35;;;;;;;6.28;80.08;102711.41;5073868;28;20020;-54
2023/05/18 03:05:26;;;;;;;6.38;3.70;;;;;;;6.22;81.07;102708.94;5066207;28;20494;-56
2023/05/18 03:07:51;;;;;;;12.07;4.30;;;;;;;6.21;81.06;102716.00;5072674;28;20042;-55
2023/05/18 03:10:20;;;;;;;9.02;3.80;;;;;;;6.20;81.47;102716.91;5072606;28;20055;-54
2023/05/18 03:12:46;;;;;;;10.35;3.97;;;;;;;6.19;81.05;102712.50;5071729;28;20024;-55
2023/05/18 03:15:14;;;;;;;13.20;4.07;;;;;;;6.18;81.36;102713.44;5073003;28;20032;-54
2023/05/18 03:17:43;;;;;;;9.73;4.00;;;;;;;6.14;81.54;102717.06;5071004;28;20501;-56
2023/05/18 03:20:14;;;;;;;9.70;3.42;;;;;;;6.15;81.28;102708.25;5064085;28;20021;-57
2023/05/18 03:22:40;;;;;;;14.75;4.25;;;;;;;6.11;81.71;102707.47;5068499;28;20037;-57
2023/05/18 03:25:06;;;;;;;15.07;4.10;;;;;;;6.10;81.65;102712.78;5072477;28;20033;-56
2023/05/18 03:27:31;;;;;;;13.60;3.83;;;;;;;6.09;81.57;102709.25;5071593;28;20025;-55
2023/05/18 03:29:57;;;;;;;11.32;3.67;;;;;;;6.07;81.85;102710.22;5062985;28;20076;-57
2023/05/18 03:32:27;;;;;;;8.02;3.67;;;;;;;6.07;81.69;102716.38;5072381;28;20044;-55
2023/05/18 03:34:53;;;;;;;11.80;3.67;;;;;;;6.07;82.04;102720.78;5062719;28;20024;-54
2023/05/18 03:37:18;;;;;;;9.45;3.95;;;;;;;6.06;81.75;102716.41;5072162;28;20021;-55
2023/05/18 03:39:44;;;;;;;10.80;4.00;;;;;;;6.05;81.63;102712.06;5071311;28;20032;-54
2023/05/18 03:42:09;;;;;;;9.90;4.03;;;;;;;6.01;81.70;102707.75;5070546;28;20025;-54
2023/05/18 03:44:34;;;;;;;14.13;3.90;;;;;;;6.00;81.84;102706.03;5059005;28;20021;-54
2023/05/18 03:47:00;;;;;;;14.23;3.80;;;;;;;6.00;81.49;102709.53;5071718;28;20067;-55
2023/05/18 03:49:25;;;;;;;17.52;4.30;;;;;;;5.99;81.71;102707.78;5061675;28;20039;-55
2023/05/18 03:51:53;;;;;;;6.60;3.63;;;;;;;5.97;81.49;102712.25;5070531;28;20021;-56
2023/05/18 03:54:18;;;;;;;6.57;3.40;;;;;;;5.97;81.64;102711.41;5070901;28;20451;-57
2023/05/18 03:56:44;;;;;;;9.85;3.75;;;;;;;5.95;81.78;102714.03;5072029;28;20029;-55
2023/05/18 03:59:09;;;;;;;9.88;4.47;;;;;;;5.93;81.42;102719.34;5064942;28;20390;-55
2023/05/18 04:01:34;;;;;;;9.35;4.10;;;;;;;5.94;82.11;102720.22;5066068;28;20032;-57
2023/05/18 04:04:00;;;;;;;10.02;3.83;;;;;;;5.93;81.73;102722.00;5070028;28;20029;-56
2023/05/18 04:06:25;;;;;;;12.15;4.30;;;;;;;5.93;82.11;102719.34;5066503;28;20486;-55
2023/05/18 04:08:53;;;;;;;8.55;4.20;;;;;;;5.92;82.14;102730.78;5065092;28;20024;-57
2023/05/18 04:11:21;;;;;;;12.57;4.15;;;;;;;5.92;82.06;102728.16;5060959;28;20059;-56
2023/05/18 04:13:46;;;;;;;8.55;3.85;;;;;;;5.89;82.60;102722.97;5071109;28;20111;-57
2023/05/18 04:16:12;;;;;;;13.82;4.10;;;;;;;5.91;82.86;102742.28;5071370;28;20115;-57
2023/05/18 04:18:39;;;;;;;12.63;4.43;;;;;;;5.90;82.89;102731.75;5071602;28;20021;-56
2023/05/18 04:21:05;;;;;;;9.88;4.18;;;;;;;5.89;83.08;102738.78;5060303;28;20028;-55
2023/05/18 04:23:32;;;;;;;12.35;4.47;;;;;;;5.88;83.40;102738.84;5070359;28;20032;-58
2023/05/18 04:25:58;;;;;;;9.95;3.85;;;;;;;5.90;83.56;102737.03;5069465;28;20442;-57
2023/05/18 04:28:23;;;;;;;10.35;4.55;;;;;;;5.91;84.32;102731.72;5071281;28;20028;-55
2023/05/18 04:30:50;;;;;;;9.00;4.00;;;;;;;5.93;83.68;102734.31;5071433;28;20379;-58
2023/05/18 04:33:16;;;;;;;18.40;4.93;;;;;;;5.95;83.84;102752.75;5059370;28;20036;-57
2023/05/18 04:35:41;;;;;;;10.40;4.40;;;;;;;5.93;83.58;102734.31;5071667;28;20025;-57
2023/05/18 04:38:06;;;;;;;10.70;4.78;;;;;;;5.99;84.04;102742.09;5071231;28;20115;-57
2023/05/18 04:40:32;;;;;;;11.50;4.55;;;;;;;6.00;84.06;102756.16;5069278;28;20481;-54
2023/05/18 04:42:59;;;;;;;12.95;4.35;;;;;;;6.01;84.22;102742.03;5068627;28;20425;-58
2023/05/18 04:45:25;;;;;;;14.10;4.28;;;;;;;6.03;83.91;102743.75;5059135;28;20028;-55
2023/05/18 04:47:53;;;;;;;8.57;4.18;;;;;;;6.05;84.09;102746.34;5058472;28;20447;-58
2023/05/18 04:50:19;;;;;;;14.63;4.07;;;;;;;6.07;84.01;102750.66;5070984;28;20059;-58
2023/05/18 04:52:47;;;;;;;13.32;4.65;;;;;;;6.06;84.05;102755.97;5071523;28;20028;-56
2023/05/18 04:55:27;;;;;;;13.95;4.88;;;;;;;6.12;84.19;102755.81;5069684;28;20477;-56
2023/05/18 04:57:55;;;;;;;13.00;4.90;;;;;;;6.13;83.96;102752.28;5065926;28;20506;-53
2023/05/18 05:00:21;;;;;;;8.95;4.35;;;;;;;6.18;83.75;102755.66;5071419;28;20366;-56
2023/05/18 05:02:46;;;;;;;13.95;4.40;;;;;;;6.24;83.50;102760.75;5063677;28;20027;-55
2023/05/18 05:05:11;;;;;;;13.32;4.50;;;;;;;6.27;83.26;102760.66;5067894;28;20112;-57
2023/05/18 05:07:37;;;;;;;14.40;4.93;;;;;;;6.30;83.25;102759.72;5060686;28;20029;-57
2023/05/18 05:10:02;;;;;;;15.10;4.55;;;;;;;6.33;82.84;102758.75;5070304;28;20060;-55
2023/05/18 05:12:28;;;;;;;10.90;4.63;;;;;;;6.35;83.32;102760.47;5066969;28;20033;-53
2023/05/18 05:14:53;;;;;;;12.75;4.45;;;;;;;6.38;82.80;102759.50;5069854;28;20108;-56
2023/05/18 05:17:18;;;;;;;12.35;4.57;;;;;;;6.41;83.06;102762.94;5064888;28;20029;-55
2023/05/18 05:19:44;;;;;;;14.68;4.93;;;;;;;6.44;82.91;102754.91;5068380;28;20074;-56
2023/05/18 05:22:09;;;;;;;10.07;4.20;;;;;;;6.47;82.32;102756.59;5060181;28;20162;-57
2023/05/18 05:24:35;;;;;;;10.60;4.72;;;;;;;6.52;81.63;102754.69;5058957;28;20025;-55
2023/05/18 05:27:00;;;;;;;12.75;5.00;;;;;;;6.54;81.63;102758.16;5066772;28;20029;-56
2023/05/18 05:29:26;;;;;;;9.70;4.65;;;;;;;6.59;81.74;102769.44;5062989;28;20056;-56
2023/05/18 05:31:52;;;;;;;12.18;4.80;;;;;;;6.62;81.63;102760.56;5074784;28;20051;-56
2023/05/18 05:34:17;;;;;;;13.40;4.85;;;;;;;6.63;81.64;102755.25;5068322;28;20056;-55
2023/05/18 05:36:42;;;;;;;12.82;4.80;;;;;;;6.68;81.56;102760.41;5074637;28;20013;-55
2023/05/18 05:39:08;;;;;;;10.65;4.70;;;;;;;6.74;81.17;102759.34;5074610;28;20039;-55
2023/05/18 05:41:33;;;;;;;11.60;4.68;;;;;;;6.82;80.80;102750.28;5073698;28;20085;-55
2023/05/18 05:43:58;;;;;;;11.93;4.53;;;;;;;6.92;80.61;102757.94;5073355;28;20029;-56
2023/05/18 05:46:24;;;;;;;9.52;4.88;;;;;;;7.01;79.35;102757.63;5069542;28;20021;-55
2023/05/18 05:48:49;;;;;;;14.95;4.97;;;;;;;7.14;79.41;102759.00;5074552;28;20024;-55
2023/05/18 05:51:15;;;;;;;12.32;4.55;;;;;;;7.30;79.15;102755.88;5077068;28;20359;-54
2023/05/18 05:53:42;;;;;;;12.18;5.10;;;;;;;7.41;78.08;102761.66;5069682;28;20033;-56
2023/05/18 05:56:07;;;;;;;10.07;4.47;;;;;;;7.46;77.52;102758.88;5071488;28;20031;-56
2023/05/18 05:58:32;;;;;;;11.43;4.85;;;;;;;7.50;76.72;102756.09;5071718;28;20024;-54
2023/05/18 06:00:58;;;;;;;10.75;4.97;;;;;;;7.57;77.02;102762.03;5071092;28;20355;-55
2023/05/18 06:03:23;;;;;;;14.35;4.80;;;;;;;7.59;75.79;102761.09;5074087;28;20029;-55
2023/05/18 06:05:48;;;;;;;9.55;5.07;;;;;;;7.64;76.17;102763.56;5068464;28;20107;-56
2023/05/18 06:08:15;;;;;;;11.70;4.65;;;;;;;7.71;76.52;102759.81;5056537;28;20040;-56
2023/05/18 06:10:41;;;;;;;11.63;5.00;;;;;;;7.77;75.99;102766.66;5065571;28;20463;-57
2023/05/18 06:13:06;;;;;;;12.73;4.85;;;;;;;7.85;75.53;102759.31;5063337;28;20127;-57
2023/05/18 06:15:32;;;;;;;16.05;4.93;;;;;;;7.87;74.06;102762.78;5057088;28;20056;-55
2023/05/18 06:17:57;;;;;;;14.80;5.45;;;;;;;7.95;74.31;102767.81;5064986;28;20040;-55
2023/05/18 06:20:22;;;;;;;14.00;5.47;;;;;;;8.02;74.39;102758.72;5062235;28;20137;-56
2023/05/18 06:22:47;;;;;;;11.10;4.82;;;;;;;8.05;73.65;102765.72;5060757;28;20116;-53
2023/05/18 06:25:13;;;;;;;11.75;5.10;;;;;;;8.11;73.66;102766.38;5061948;28;20462;-55
2023/05/18 06:27:38;;;;;;;17.55;5.30;;;;;;;8.22;73.44;102757.16;5067481;28;20047;-54
2023/05/18 06:30:04;;;;;;;16.27;5.10;;;;;;;8.34;72.40;102762.91;5060907;28;20074;-56
2023/05/18 06:32:29;;;;;;;16.35;5.32;;;;;;;8.51;71.78;102762.31;5065185;28;20485;-57
2023/05/18 06:34:55;;;;;;;12.45;4.70;;;;;;;8.68;71.91;102771.41;5068781;28;20036;-56
2023/05/18 06:37:20;;;;;;;10.60;4.93;;;;;;;8.88;71.19;102770.66;5058303;28;20040;-56
2023/05/18 06:39:46;;;;;;;14.57;5.28;;;;;;;9.05;69.80;102773.50;5064875;28;20119;-54
2023/05/18 06:42:11;;;;;;;13.55;4.75;;;;;;;9.28;70.21;102777.03;5055487;28;20469;-57
2023/05/18 06:44:36;;;;;;;13.07;5.25;;;;;;;9.44;68.58;102779.91;5060319;28;20028;-57
2023/05/18 06:47:01;;;;;;;15.30;5.07;;;;;;;9.60;67.89;102770.38;5065281;28;20036;-56
2023/05/18 06:49:27;;;;;;;12.48;4.88;;;;;;;9.79;67.50;102761.66;5065026;28;20040;-55
2023/05/18 06:51:52;;;;;;;10.50;4.72;;;;;;;9.95;66.23;102773.34;5065575;28;20028;-55
2023/05/18 06:54:17;;;;;;;12.10;4.65;;;;;;;10.09;65.07;102766.56;5068500;28;20032;-57
2023/05/18 06:56:43;;;;;;;12.43;4.63;;;;;;;10.27;64.91;102770.22;5063698;28;20036;-53
2023/05/18 06:59:08;;;;;;;12.57;4.70;;;;;;;10.45;64.22;102779.19;5060694;28;20144;-54
2023/05/18 07:01:33;;;;;;;14.40;4.65;;;;;;;10.57;63.25;102765.34;5053568;28;20520;-55
2023/05/18 07:03:58;;;;;;;15.30;4.57;;;;;;;10.78;62.58;102770.63;5054210;28;20108;-57
2023/05/18 07:06:24;;;;;;;12.32;4.72;;;;;;;10.93;62.52;102769.88;5062563;28;20036;-53
2023/05/18 07:08:49;;;;;;;9.82;4.00;;;;;;;11.04;61.61;102767.59;5058908;28;20036;-53
2023/05/18 07:11:15;;;;;;;15.15;4.88;;;;;;;11.21;61.19;102780.06;5061917;28;20032;-55
2023/05/18 07:13:40;;;;;;;11.57;4.18;;;;;;;11.49;61.41;102781.41;5060200;28;20033;-52
2023/05/18 07:16:05;;;;;;;11.18;4.18;;;;;;;11.66;60.01;102778.75;5057907;28;20564;-53
2023/05/18 07:18:31;;;;;;;12.25;4.07;;;;;;;11.84;59.14;102784.09;5067302;28;20025;-52
2023/05/18 07:20:56;;;;;;;14.30;4.85;;;;;;;11.90;58.35;102788.22;5070976;28;20024;-53
2023/05/18 07:23:22;;;;;;;13.23;3.83;;;;;;;12.07;58.29;102776.72;5063127;28;20082;-55
2023/05/18 07:25:48;;;;;;;12.63;4.65;;;;;;;12.33;58.40;102786.88;5067153;28;20438;-56
2023/05/18 07:28:13;;;;;;;10.77;4.40;;;;;;;12.44;56.92;102788.09;5068559;28;20393;-53
2023/05/18 07:30:38;;;;;;;11.48;4.15;;;;;;;12.53;55.74;102785.81;5071358;28;20051;-53
2023/05/18 07:33:04;;;;;;;12.90;4.55;;;;;;;12.71;55.87;102791.94;5062313;28;20090;-53
2023/05/18 07:35:29;;;;;;;11.23;3.90;;;;;;;12.85;55.19;102793.00;5068798;28;20163;-55
2023/05/18 07:37:56;;;;;;;13.88;4.75;;;;;;;13.00;54.30;102791.28;5062053;28;20028;-55
2023/05/18 07:40:21;;;;;;;9.50;4.47;;;;;;;13.21;53.74;102789.25;5052925;28;20482;-54
2023/05/18 07:42:46;;;;;;;12.20;4.00;;;;;;;13.28;52.65;102786.09;5053470;28;20172;-55
2023/05/18 07:45:12;;;;;;;12.30;4.03;;;;;;;13.50;53.04;102785.75;5065346;28;20051;-57
2023/05/18 07:47:37;;;;;;;10.15;4.43;;;;;;;13.69;53.37;102793.56;5058408;28;20032;-55
2023/05/18 07:50:03;;;;;;;10.27;4.18;;;;;;;13.95;52.46;102798.31;5069807;28;20032;-57
2023/05/18 07:52:28;;;;;;;11.57;3.63;;;;;;;14.34;51.79;102800.41;5057651;28;20078;-56
2023/05/18 07:54:55;;;;;;;11.52;4.15;;;;;;;14.61;51.25;102791.66;5055655;28;20470;-56
2023/05/18 07:57:21;;;;;;;8.52;4.15;;;;;;;14.92;49.63;102792.38;5055626;28;20046;-54
2023/05/18 07:59:46;;;;;;;10.35;4.13;;;;;;;15.20;48.67;102795.94;5058607;28;20032;-54
2023/05/18 08:02:11;;;;;;;11.50;4.33;;;;;;;15.35;48.85;102793.13;5036044;28;20140;-54
2023/05/18 08:04:37;;;;;;;8.45;3.97;;;;;;;15.43;50.09;102797.97;5056906;28;20279;-56
2023/05/18 08:07:03;;;;;;;11.18;4.45;;;;;;;15.63;48.52;102804.66;5061997;28;20481;-56
2023/05/18 08:09:29;;;;;;;10.38;3.83;;;;;;;15.77;48.02;102802.91;5052248;28;20025;-56
2023/05/18 08:11:55;;;;;;;10.85;4.03;;;;;;;16.00;48.10;102794.16;5053288;28;20028;-56
2023/05/18 08:14:20;;;;;;;11.93;4.00;;;;;;;16.07;45.48;102798.16;5053183;28;20032;-54
2023/05/18 08:16:46;;;;;;;12.25;3.90;;;;;;;16.06;45.05;102801.78;5053996;28;20111;-55
2023/05/18 08:19:11;;;;;;;8.88;4.25;;;;;;;16.19;45.69;102804.50;5053795;28;20027;-56
2023/05/18 08:21:36;;;;;;;10.03;4.20;;;;;;;16.25;44.61;102800.50;5063186;28;20036;-54
2023/05/18 08:24:02;;;;;;;11.55;3.85;;;;;;;16.34;43.79;102799.88;5063226;28;20855;-53
2023/05/18 08:26:28;;;;;;;11.52;3.75;;;;;;;16.35;44.23;102790.84;5069351;28;20024;-55
2023/05/18 08:28:54;;;;;;;10.40;3.88;;;;;;;16.53;45.35;102793.22;5065222;28;20020;-54
2023/05/18 08:31:20;;;;;;;12.88;4.13;;;;;;;16.62;44.57;102796.09;5064440;28;20024;-53
2023/05/18 08:33:45;;;;;;;10.77;3.63;;;;;;;16.52;42.06;102783.44;5061922;28;20677;-54
2023/05/18 08:36:11;;;;;;;10.57;3.55;;;;;;;16.68;42.90;102783.22;5063767;28;20028;-53
2023/05/18 08:38:36;;;;;;;12.18;3.85;;;;;;;16.86;42.72;102783.75;5057301;28;20033;-53
2023/05/18 08:41:11;;;;;;;12.68;3.97;;;;;;;17.18;43.88;102779.53;5064317;28;20036;-53
2023/05/18 08:43:40;;;;;;;10.52;3.47;;;;;;;17.48;42.53;102772.84;5053516;28;20025;-53
2023/05/18 08:46:27;;;;;;;12.38;3.40;;;;;;;17.62;42.68;102770.94;5053961;28;20025;-54
2023/05/18 08:48:53;;;;;;;16.27;4.30;;;;;;;17.70;40.97;102769.41;5064836;28;20112;-52
2023/05/18 08:51:20;;;;;;;8.35;3.65;;;;;;;17.90;41.51;102775.09;5060155;28;20057;-52
2023/05/18 08:53:52;;;;;;;10.50;3.67;;;;;;;17.89;40.32;102771.56;5057276;28;20111;-53
2023/05/18 08:56:21;;;;;;;11.93;3.33;;;;;;;17.99;39.61;102762.81;5085227;28;20127;-53
2023/05/18 08:58:49;;;;;;;15.20;3.95;;;;;;;17.99;40.48;102760.97;5071161;28;20033;-55
2023/05/18 09:01:14;;;;;;;8.35;3.63;;;;;;;17.98;40.11;102761.06;5064293;28;20125;-55
2023/05/18 09:03:40;;;;;;;7.97;3.25;;;;;;;17.95;38.70;102767.53;5069285;28;20047;-53
2023/05/18 09:06:06;;;;;;;9.35;3.25;;;;;;;18.08;39.40;102762.91;5064981;28;20126;-55
2023/05/18 09:08:32;;;;;;;11.80;3.67;;;;;;;18.31;39.05;102761.09;5054704;28;20036;-54
2023/05/18 09:11:01;;;;;;;9.77;3.55;;;;;;;18.33;38.76;102747.53;5055195;28;20147;-55
2023/05/18 09:13:26;;;;;;;12.77;3.70;;;;;;;18.77;38.61;102761.06;5051992;28;20021;-53
2023/05/18 09:15:52;;;;;;;12.43;3.00;;;;;;;18.79;37.31;102757.28;5052787;28;20021;-55
2023/05/18 09:18:17;;;;;;;12.93;4.07;;;;;;;18.80;37.82;102753.63;5054489;28;20037;-52
2023/05/18 09:20:43;;;;;;;11.27;3.20;;;;;;;18.99;37.09;102750.31;5054355;28;20248;-55
2023/05/18 09:23:10;;;;;;;13.15;3.33;;;;;;;19.16;37.32;102753.44;5055424;28;20045;-52
2023/05/18 09:25:44;;;;;;;9.93;3.33;;;;;;;19.35;37.19;102750.06;5053541;28;20470;-52
2023/05/18 09:28:13;;;;;;;9.02;3.20;;;;;;;19.31;35.84;102760.25;5068107;28;20040;-52
2023/05/18 09:30:42;;;;;;;10.90;3.17;;;;;;;19.36;34.83;102755.31;5061784;28;20556;-52
2023/05/18 09:33:20;;;;;;;14.63;3.42;;;;;;;19.51;34.75;102750.47;5069035;28;20028;-53
2023/05/18 09:35:46;;;;;;;5.80;2.75;;;;;;;19.73;34.57;102741.44;5069811;28;20032;-54
2023/05/18 09:38:16;;;;;;;8.32;2.72;;;;;;;20.17;34.48;102741.28;5070174;28;20020;-55
2023/05/18 09:40:45;;;;;;;9.65;3.38;;;;;;;20.13;34.75;102743.41;5071214;28;20028;-55
2023/05/18 09:43:10;;;;;;;;;;;;;;;20.67;37.78;102740.53;5061487;28;20032;-55
2023/05/18 09:45:41;;;;;;;11.73;3.20;;;;;;;20.58;35.96;102741.31;5059281;28;19908;-55
2023/05/18 09:48:06;;;;;;;8.75;3.30;;;;;;;20.48;33.30;102742.16;5057774;28;20039;-54
2023/05/18 09:50:32;;;;;;;13.00;3.23;;;;;;;20.72;34.55;102748.19;5073576;28;20111;-54
2023/05/18 09:52:59;;;;;;;9.82;3.13;;;;;;;20.42;33.09;102734.59;5073815;28;20621;-54
2023/05/18 09:55:24;;;;;;;8.55;2.95;;;;;;;20.52;32.48;102740.88;5072759;28;20075;-54
2023/05/18 09:57:50;;;;;;;12.50;3.50;;;;;;;20.88;33.24;102724.19;5073878;28;20028;-56
2023/05/18 10:00:18;;;;;;;11.82;3.50;;;;;;;20.97;31.99;102739.59;5074193;28;20029;-55
2023/05/18 10:02:50;;;;;;;7.75;2.90;;;;;;;21.12;31.57;102731.91;5070594;28;20036;-54
2023/05/18 10:05:25;;;;;;;10.82;3.55;;;;;;;21.06;32.63;102725.22;5074346;28;20063;-54
2023/05/18 10:07:50;;;;;;;7.93;3.05;;;;;;;21.24;31.81;102733.47;5069328;28;20560;-54
2023/05/18 10:10:18;;;;;;;9.30;3.05;;;;;;;21.25;30.56;102731.66;5073762;28;20028;-58
2023/05/18 10:12:44;;;;;;;10.00;3.50;;;;;;;21.27;31.72;102724.25;5071101;28;20038;-58
2023/05/18 10:15:13;;;;;;;8.25;3.20;;;;;;;21.24;31.74;102719.97;5074031;28;20507;-58
2023/05/18 10:17:41;;;;;;;9.02;3.45;;;;;;;21.46;31.16;102719.81;5071772;28;20434;-58
2023/05/18 10:20:08;;;;;;;10.10;3.22;;;;;;;21.36;30.87;102720.69;5066470;28;20427;-55
2023/05/18 10:22:35;;;;;;;10.23;3.05;;;;;;;21.46;30.93;102723.38;5071059;28;20024;-56
2023/05/18 10:25:04;;;;;;;10.90;3.40;;;;;;;21.31;30.72;102720.25;5066188;28;20104;-58
2023/05/18 10:27:32;;;;;;;;;;;;;;;21.87;33.75;102715.09;5071865;28;20028;-58
2023/05/18 10:29:58;;;;;;;9.45;3.30;;;;;;;21.62;30.97;102720.13;5068441;28;19916;-58
2023/05/18 10:32:24;;;;;;;8.25;3.03;;;;;;;21.45;31.63;102713.56;5071324;28;20423;-57
2023/05/18 10:34:52;;;;;;;9.38;3.55;;;;;;;21.19;30.45;102719.53;5067231;28;20453;-55
2023/05/18 10:37:20;;;;;;;8.07;3.33;;;;;;;21.21;30.21;102712.13;5059555;28;20024;-57
2023/05/18 10:39:49;;;;;;;8.27;3.07;;;;;;;21.01;29.88;102718.53;5059310;28;20497;-56
2023/05/18 10:42:15;;;;;;;10.73;3.42;;;;;;;20.64;30.18;102711.94;5073158;28;20034;-56
2023/05/18 10:44:41;;;;;;;8.32;3.22;;;;;;;20.59;31.00;102703.38;5060315;28;20025;-57
2023/05/18 10:47:07;;;;;;;8.15;3.25;;;;;;;20.81;32.15;102701.47;5055467;28;20175;-57
2023/05/18 10:49:33;;;;;;;8.02;3.15;;;;;;;20.92;30.88;102705.88;5067099;28;20035;-56
2023/05/18 10:51:59;;;;;;;8.45;2.88;;;;;;;21.00;32.01;102708.72;5071154;28;20033;-57
2023/05/18 10:54:25;;;;;;;9.65;3.17;;;;;;;20.97;30.25;102709.88;5069801;28;20492;-54
2023/05/18 10:56:52;;;;;;;8.25;3.55;;;;;;;20.99;30.85;102701.63;5065834;28;20037;-56
2023/05/18 10:59:19;;;;;;;10.80;2.92;;;;;;;20.94;31.69;102709.31;5057580;28;20115;-55
2023/05/18 11:01:46;;;;;;;8.85;3.28;;;;;;;21.03;31.47;102705.75;5071436;28;20037;-56
2023/05/18 11:04:11;;;;;;;10.50;3.30;;;;;;;20.95;30.75;102695.66;5072201;28;20024;-56
2023/05/18 11:06:38;;;;;;;7.00;3.33;;;;;;;20.99;30.17;102691.66;5067047;28;20393;-55
2023/05/18 11:09:03;;;;;;;9.13;3.10;;;;;;;21.14;31.02;102702.91;5072732;28;20161;-53
2023/05/18 11:11:29;;;;;;;11.55;3.30;;;;;;;21.11;30.94;102702.34;5069391;28;20678;-53
2023/05/18 11:14:00;;;;;;;8.45;3.60;;;;;;;20.92;31.37;102700.47;5072899;28;20021;-53
2023/05/18 11:16:35;;;;;;;9.88;3.30;;;;;;;20.95;31.62;102694.78;5070194;28;20477;-54
2023/05/18 11:19:11;;;;;;;8.45;3.40;;;;;;;20.97;32.06;102695.53;5061978;28;20025;-54
2023/05/18 11:21:40;;;;;;;9.93;3.08;;;;;;;20.99;32.03;102701.63;5072436;28;20064;-53
2023/05/18 11:24:23;;;;;;;;;;;;;;;21.40;32.73;102688.81;5072016;28;20728;-53
2023/05/18 11:26:54;;;;;;;11.80;3.58;;;;;;;20.64;30.66;102693.03;5067580;28;19908;-52